createdAt,value
2022-08-04T00:00:42.395Z,18.94
2022-08-04T00:02:44.102Z,18.86
2022-08-04T00:04:45.925Z,18.8
2022-08-04T00:06:47.242Z,18.66
2022-08-04T00:08:48.986Z,18.7
2022-08-04T00:10:50.360Z,18.82
2022-08-04T00:12:51.365Z,18.81
2022-08-04T00:14:53.199Z,18.86
2022-08-04T00:16:54.320Z,18.8
2022-08-04T00:18:55.965Z,18.81
2022-08-04T00:20:57.100Z,18.78
2022-08-04T00:22:57.957Z,18.77
2022-08-04T00:24:59.200Z,18.79
2022-08-04T00:27:00.734Z,18.74
2022-08-04T00:29:01.929Z,18.76
2022-08-04T00:31:03.751Z,18.68
2022-08-04T00:33:05.169Z,18.66
2022-08-04T00:35:06.952Z,18.66
2022-08-04T00:37:08.699Z,18.71
2022-08-04T00:39:10.468Z,18.59
2022-08-04T00:41:11.486Z,18.47
2022-08-04T00:43:12.567Z,18.36
2022-08-04T00:45:14.406Z,18.42
2022-08-04T00:47:16.251Z,18.46
2022-08-04T00:49:17.203Z,18.47
2022-08-04T00:51:18.359Z,18.53
2022-08-04T00:53:20.134Z,18.55
2022-08-04T00:55:21.664Z,18.48
2022-08-04T00:57:30.035Z,18.47
2022-08-04T00:59:24.025Z,18.44
2022-08-04T01:01:25.620Z,18.37
2022-08-04T01:03:26.692Z,18.33
2022-08-04T01:05:28.030Z,18.35
2022-08-04T01:07:29.729Z,18.31
2022-08-04T01:11:32.413Z,18.29
2022-08-04T01:13:33.299Z,18.28
2022-08-04T01:15:53.904Z,18.27
2022-08-04T01:17:35.492Z,18.24
2022-08-04T01:19:37.174Z,18.19
2022-08-04T01:21:38.872Z,18.18
2022-08-04T01:23:40.458Z,18.13
2022-08-04T01:25:42.110Z,18.05
2022-08-04T01:27:43.119Z,17.89
2022-08-04T01:29:46.613Z,17.8
2022-08-04T01:31:45.733Z,17.78
2022-08-04T01:33:58.731Z,17.76
2022-08-04T01:35:48.551Z,17.76
2022-08-04T01:37:49.700Z,17.66
2022-08-04T01:39:50.952Z,17.69
2022-08-04T01:41:58.067Z,17.68
2022-08-04T01:43:53.113Z,17.65
2022-08-04T01:45:54.589Z,17.57
2022-08-04T01:47:55.870Z,17.5
2022-08-04T01:49:57.480Z,17.55
2022-08-04T01:51:59.155Z,17.69
2022-08-04T01:54:00.260Z,17.71
2022-08-04T01:56:01.832Z,17.62
2022-08-04T01:58:03.020Z,17.69
2022-08-04T02:00:04.040Z,17.65
2022-08-04T02:02:05.570Z,17.55
2022-08-04T02:04:19.154Z,17.5
2022-08-04T02:08:09.633Z,17.49
2022-08-04T02:10:11.087Z,17.44
2022-08-04T02:12:16.029Z,17.43
2022-08-04T02:14:14.261Z,17.4
2022-08-04T02:16:16.044Z,17.36
2022-08-04T02:18:17.473Z,17.49
2022-08-04T02:20:19.056Z,17.53
2022-08-04T02:22:19.951Z,17.63
2022-08-04T02:24:21.693Z,17.56
2022-08-04T02:26:23.133Z,17.51
2022-08-04T02:28:23.981Z,17.41
2022-08-04T02:30:25.350Z,17.33
2022-08-04T02:32:26.448Z,17.28
2022-08-04T02:34:28.054Z,17.29
2022-08-04T02:36:29.177Z,17.24
2022-08-04T02:38:30.309Z,17.23
2022-08-04T02:40:31.376Z,17.16
2022-08-04T02:42:33.242Z,17.11
2022-08-04T02:44:34.922Z,17.17
2022-08-04T02:46:35.910Z,17.28
2022-08-04T02:48:37.518Z,17.3
2022-08-04T02:50:39.144Z,17.23
2022-08-04T02:52:40.877Z,17.19
2022-08-04T02:54:42.138Z,17.07
2022-08-04T02:56:43.967Z,16.97
2022-08-04T02:58:44.918Z,16.94
2022-08-04T03:00:46.600Z,17.02
2022-08-04T03:02:48.036Z,16.99
2022-08-04T03:04:49.490Z,17.08
2022-08-04T03:07:34.829Z,17.01
2022-08-04T03:09:35.705Z,16.89
2022-08-04T03:11:37.151Z,16.82
2022-08-04T03:13:38.563Z,16.81
2022-08-04T03:15:39.625Z,16.75
2022-08-04T03:17:52.781Z,16.63
2022-08-04T03:19:42.545Z,16.55
2022-08-04T03:21:43.913Z,16.51
2022-08-04T03:23:45.421Z,16.46
2022-08-04T03:25:54.331Z,16.5
2022-08-04T03:27:47.576Z,16.73
2022-08-04T03:29:48.800Z,16.89
2022-08-04T03:31:50.029Z,17
2022-08-04T03:33:51.669Z,16.97
2022-08-04T03:35:53.561Z,16.97
2022-08-04T03:37:54.583Z,16.9
2022-08-04T03:39:55.883Z,16.94
2022-08-04T03:42:05.538Z,16.99
2022-08-04T03:43:59.948Z,17.09
2022-08-04T03:45:59.935Z,17.13
2022-08-04T03:48:01.273Z,17.22
2022-08-04T03:50:03.015Z,17.24
2022-08-04T03:52:04.314Z,17.2
2022-08-04T03:54:05.295Z,17.14
2022-08-04T03:56:06.348Z,17.05
2022-08-04T03:58:07.394Z,16.96
2022-08-04T04:00:08.354Z,17.06
2022-08-04T04:02:09.818Z,17.06
2022-08-04T04:04:11.014Z,17.17
2022-08-04T04:06:15.075Z,17.14
2022-08-04T04:08:16.747Z,17.05
2022-08-04T04:10:15.506Z,16.89
2022-08-04T04:12:17.183Z,16.74
2022-08-04T04:14:18.087Z,16.64
2022-08-04T04:16:19.171Z,16.58
2022-08-04T04:18:20.533Z,16.55
2022-08-04T04:20:22.112Z,16.51
2022-08-04T04:22:23.016Z,16.55
2022-08-04T04:24:24.166Z,16.59
2022-08-04T04:26:25.230Z,16.58
2022-08-04T04:28:43.959Z,16.56
2022-08-04T04:30:27.214Z,16.58
2022-08-04T04:32:28.862Z,16.58
2022-08-04T04:34:30.745Z,16.62
2022-08-04T04:36:31.774Z,16.66
2022-08-04T04:38:33.449Z,16.71
2022-08-04T04:40:35.283Z,16.73
2022-08-04T04:42:37.030Z,16.75
2022-08-04T04:44:37.957Z,16.79
2022-08-04T04:46:38.874Z,16.9
2022-08-04T04:48:39.808Z,17.18
2022-08-04T04:50:41.043Z,17.57
2022-08-04T04:52:42.267Z,18
2022-08-04T04:54:43.379Z,18.26
2022-08-04T04:56:45.038Z,18.51
2022-08-04T04:58:46.176Z,18.8
2022-08-04T05:00:47.682Z,19.13
2022-08-04T05:02:49.158Z,19.64
2022-08-04T05:04:50.694Z,19.84
2022-08-04T05:06:54.433Z,19.79
2022-08-04T05:10:55.321Z,20.13
2022-08-04T05:14:31.011Z,19.78
2022-08-04T05:14:57.456Z,19.49
2022-08-04T05:16:58.707Z,19.49
2022-08-04T05:18:59.871Z,19.6
2022-08-04T05:21:01.417Z,19.76
2022-08-04T05:23:02.891Z,20.2
2022-08-04T05:25:04.209Z,20.44
2022-08-04T05:27:05.682Z,20.6
2022-08-04T05:29:07.470Z,20.93
2022-08-04T05:31:08.787Z,20.85
2022-08-04T05:33:09.868Z,20.81
2022-08-04T05:35:11.463Z,20.91
2022-08-04T05:37:13.255Z,20.74
2022-08-04T05:39:14.934Z,20.56
2022-08-04T05:41:15.961Z,20.58
2022-08-04T05:43:17.413Z,21.3
2022-08-04T05:45:18.645Z,20.93
2022-08-04T05:47:19.757Z,21.18
2022-08-04T05:49:22.164Z,21.04
2022-08-04T05:51:22.562Z,21.43
2022-08-04T05:53:24.352Z,21.81
2022-08-04T05:55:48.550Z,21.34
2022-08-04T05:57:27.301Z,21.27
2022-08-04T05:59:28.967Z,22.13
2022-08-04T06:01:30.533Z,22.44
2022-08-04T06:03:32.064Z,22.89
2022-08-04T06:05:33.383Z,23.34
2022-08-04T06:07:34.393Z,23.83
2022-08-04T06:09:36.452Z,24.27
2022-08-04T06:12:00.350Z,24.35
2022-08-04T06:13:45.212Z,24.69
2022-08-04T06:15:40.626Z,24.43
2022-08-04T06:18:32.455Z,24.88
2022-08-04T06:20:01.633Z,24.34
2022-08-04T06:21:45.073Z,24.28
2022-08-04T06:23:52.888Z,24.4
2022-08-04T06:25:47.536Z,24.56
2022-08-04T06:27:48.515Z,24.89
2022-08-04T06:29:50.794Z,24.79
2022-08-04T06:32:29.122Z,25.09
2022-08-04T06:33:54.695Z,25.23
2022-08-04T06:35:53.645Z,25.61
2022-08-04T06:37:57.751Z,25.63
2022-08-04T06:39:55.778Z,25.09
2022-08-04T06:42:16.970Z,25.15
2022-08-04T06:43:57.940Z,25.18
2022-08-04T06:45:58.968Z,25.1
2022-08-04T06:48:00.606Z,25.78
2022-08-04T06:52:02.873Z,26.05
2022-08-04T06:54:04.298Z,25.87
2022-08-04T06:56:05.088Z,26.21
2022-08-04T06:58:06.636Z,26.3
2022-08-04T07:00:07.665Z,26.09
2022-08-04T07:02:09.422Z,26.48
2022-08-04T07:04:10.683Z,26.83
2022-08-04T07:06:14.071Z,27.39
2022-08-04T07:08:13.204Z,27.7
2022-08-04T07:10:14.010Z,27.79
2022-08-04T07:12:15.091Z,27.83
2022-08-04T07:14:16.305Z,27.93
2022-08-04T07:16:17.229Z,27.88
2022-08-04T07:18:18.671Z,28.2
2022-08-04T07:20:30.577Z,28.58
2022-08-04T07:22:25.506Z,28.34
2022-08-04T07:24:22.543Z,28.79
2022-08-04T07:26:24.049Z,29.31
2022-08-04T07:28:25.020Z,29.75
2022-08-04T07:30:25.883Z,29.47
2022-08-04T07:32:27.452Z,29.79
2022-08-04T07:34:28.951Z,30.2
2022-08-04T07:36:34.150Z,30.41
2022-08-04T07:38:31.450Z,30.63
2022-08-04T07:40:32.492Z,30.67
2022-08-04T07:42:34.181Z,30.8
2022-08-04T07:44:35.867Z,30.79
2022-08-04T07:46:36.727Z,31.12
2022-08-04T07:48:38.038Z,31.07
2022-08-04T07:50:38.897Z,31.87
2022-08-04T07:52:40.105Z,31.3
2022-08-04T07:54:40.855Z,31.99
2022-08-04T07:56:41.982Z,32.07
2022-08-04T07:58:43.352Z,32.8
2022-08-04T08:00:44.655Z,32.61
2022-08-04T08:02:46.084Z,32.33
2022-08-04T08:04:47.173Z,32.19
2022-08-04T08:06:48.659Z,31.84
2022-08-04T08:08:50.155Z,32.02
2022-08-04T08:10:50.988Z,32.31
2022-08-04T08:12:52.229Z,32.08
2022-08-04T08:14:53.069Z,32.03
2022-08-04T08:16:54.524Z,32.64
2022-08-04T08:18:55.537Z,32.33
2022-08-04T08:20:56.826Z,32.35
2022-08-04T08:22:57.820Z,32.81
2022-08-04T08:24:58.559Z,32.39
2022-08-04T08:26:59.461Z,32.85
2022-08-04T08:29:00.857Z,33
2022-08-04T08:31:02.281Z,33.3
2022-08-04T08:33:03.140Z,33.32
2022-08-04T08:35:03.769Z,33.11
2022-08-04T08:37:05.341Z,32.58
2022-08-04T08:39:06.533Z,33.02
2022-08-04T08:41:07.465Z,33.12
2022-08-04T08:44:00.823Z,33.39
2022-08-04T08:45:10.163Z,33.33
2022-08-04T08:47:11.415Z,33.44
2022-08-04T08:49:12.931Z,33.79
2022-08-04T08:51:14.617Z,33.34
2022-08-04T08:53:15.368Z,33.43
2022-08-04T08:55:16.759Z,33.73
2022-08-04T08:57:18.006Z,33.75
2022-08-04T08:59:18.889Z,33.41
2022-08-04T09:01:19.972Z,33.49
2022-08-04T09:03:21.067Z,33.54
2022-08-04T09:05:21.791Z,33.47
2022-08-04T09:07:23.403Z,34.18
2022-08-04T09:09:24.841Z,34.28
2022-08-04T09:11:26.539Z,34.32
2022-08-04T09:13:27.527Z,34.12
2022-08-04T09:15:28.745Z,34.35
2022-08-04T09:17:30.205Z,34.64
2022-08-04T09:19:38.317Z,34.77
2022-08-04T09:21:32.715Z,34.89
2022-08-04T09:23:34.003Z,34.71
2022-08-04T09:25:35.688Z,34.46
2022-08-04T09:27:37.242Z,34.34
2022-08-04T09:29:38.873Z,34.8
2022-08-04T09:31:48.872Z,34.34
2022-08-04T09:33:44.349Z,34.58
2022-08-04T09:35:42.560Z,34.76
2022-08-04T09:37:45.517Z,35.11
2022-08-04T09:39:44.909Z,35.43
2022-08-04T09:41:48.899Z,34.67
2022-08-04T09:43:57.429Z,34.35
2022-08-04T09:45:49.750Z,34.61
2022-08-04T09:47:50.651Z,34.83
2022-08-04T09:49:51.978Z,35.08
2022-08-04T09:51:57.158Z,35.02
2022-08-04T09:52:37.424Z,35.06
2022-08-04T09:54:39.103Z,35.13
2022-08-04T09:56:39.733Z,34.81
2022-08-04T09:58:40.635Z,34.57
2022-08-04T10:00:42.308Z,34.6
2022-08-04T10:02:44.021Z,35.24
2022-08-04T10:04:45.029Z,35.41
2022-08-04T10:06:46.208Z,35.15
2022-08-04T10:08:47.221Z,34.89
2022-08-04T10:10:47.958Z,35.22
2022-08-04T10:12:49.384Z,34.91
2022-08-04T10:14:50.696Z,34.7
2022-08-04T10:16:51.760Z,35.1
2022-08-04T10:18:53.317Z,35.33
2022-08-04T10:20:58.239Z,35.27
2022-08-04T10:23:09.683Z,35.83
2022-08-04T10:24:56.573Z,35.72
2022-08-04T10:26:58.323Z,35.62
2022-08-04T10:28:59.043Z,35.42
2022-08-04T10:31:00.391Z,34.92
2022-08-04T10:33:01.142Z,34.87
2022-08-04T10:35:02.790Z,34.94
2022-08-04T10:37:04.289Z,35.49
2022-08-04T10:39:06.105Z,35.25
2022-08-04T10:41:07.660Z,35.54
2022-08-04T10:43:21.082Z,35.58
2022-08-04T10:45:09.985Z,35.95
2022-08-04T10:47:11.137Z,35.09
2022-08-04T10:49:12.413Z,35
2022-08-04T10:51:13.866Z,35.41
2022-08-04T10:53:14.697Z,34.88
2022-08-04T10:55:15.822Z,35.39
2022-08-04T10:57:16.897Z,35.91
2022-08-04T10:59:17.651Z,36.53
2022-08-04T11:01:50.460Z,35.85
2022-08-04T11:03:20.655Z,36.29
2022-08-04T11:05:21.639Z,36.12
2022-08-04T11:07:23.473Z,36.29
2022-08-04T11:09:24.993Z,36.1
2022-08-04T11:11:26.028Z,35.79
2022-08-04T11:13:29.692Z,35.95
2022-08-04T11:15:28.218Z,36.7
2022-08-04T11:17:29.695Z,36.42
2022-08-04T11:19:42.908Z,36.1
2022-08-04T11:21:31.861Z,36.15
2022-08-04T11:23:33.464Z,36.49
2022-08-04T11:25:34.640Z,36.72
2022-08-04T11:27:35.383Z,36.31
2022-08-04T11:29:36.900Z,36.12
2022-08-04T11:31:38.070Z,36.37
2022-08-04T11:33:38.843Z,36.81
2022-08-04T11:35:40.182Z,36.38
2022-08-04T11:37:41.809Z,35.66
2022-08-04T11:39:42.859Z,35.29
2022-08-04T11:41:43.889Z,35.18
2022-08-04T11:43:55.983Z,35.15
2022-08-04T11:45:45.653Z,35.22
2022-08-04T11:47:46.695Z,35.06
2022-08-04T11:49:56.214Z,35.12
2022-08-04T11:51:49.510Z,35.12
2022-08-04T11:53:50.593Z,35.16
2022-08-04T11:56:01.325Z,35.06
2022-08-04T11:57:53.948Z,35.65
2022-08-04T11:59:54.121Z,36.4
2022-08-04T12:01:55.364Z,37
2022-08-04T12:03:59.562Z,37.34
2022-08-04T12:05:58.370Z,37.08
2022-08-04T12:07:59.265Z,36.8
2022-08-04T12:10:00.580Z,37.24
2022-08-04T12:12:02.297Z,37.35
2022-08-04T12:14:03.546Z,37.33
2022-08-04T12:16:04.401Z,37.18
2022-08-04T12:18:05.345Z,37.03
2022-08-04T12:20:31.501Z,37.23
2022-08-04T12:22:07.388Z,37.38
2022-08-04T12:24:08.869Z,37.2
2022-08-04T12:26:10.240Z,37.55
2022-08-04T12:28:11.520Z,37.47
2022-08-04T12:30:54.334Z,37.2
2022-08-04T12:32:13.880Z,36.61
2022-08-04T12:34:15.331Z,36.4
2022-08-04T12:36:20.585Z,36.32
2022-08-04T12:38:17.590Z,36.31
2022-08-04T12:40:28.411Z,36.86
2022-08-04T12:42:21.542Z,37.44
2022-08-04T12:44:32.723Z,37.56
2022-08-04T12:46:21.549Z,37.82
2022-08-04T12:48:23.037Z,37.83
2022-08-04T12:50:24.745Z,37.7
2022-08-04T12:52:39.696Z,37.81
2022-08-04T12:54:28.962Z,37.8
2022-08-04T12:56:28.011Z,37.83
2022-08-04T12:58:42.484Z,38.63
2022-08-04T13:00:33.109Z,38.58
2022-08-04T13:02:31.794Z,38.79
2022-08-04T13:04:32.906Z,38.32
2022-08-04T13:06:34.194Z,38.45
2022-08-04T13:08:34.969Z,38.29
2022-08-04T13:10:36.267Z,38.43
2022-08-04T13:12:37.516Z,38.2
2022-08-04T13:14:38.432Z,37.72
2022-08-04T13:16:39.481Z,38.13
2022-08-04T13:18:40.229Z,38.27
2022-08-04T13:20:41.383Z,38.64
2022-08-04T13:22:46.420Z,38.58
2022-08-04T13:24:56.223Z,38.42
2022-08-04T13:26:54.190Z,38.88
2022-08-04T13:28:46.520Z,38.59
2022-08-04T13:30:47.634Z,37.54
2022-08-04T13:32:49.000Z,37.61
2022-08-04T13:34:52.360Z,37.53
2022-08-04T13:36:51.529Z,38.05
2022-08-04T13:38:53.142Z,38.1
2022-08-04T13:40:54.171Z,38.58
2022-08-04T13:42:55.755Z,39.06
2022-08-04T13:44:56.847Z,38.77
2022-08-04T13:46:57.807Z,38.49
2022-08-04T13:51:00.704Z,38.88
2022-08-04T13:53:02.298Z,39.31
2022-08-04T13:55:03.172Z,39.52
2022-08-04T13:57:04.666Z,39.56
2022-08-04T13:59:05.848Z,39.54
2022-08-04T14:01:07.296Z,38.98
2022-08-04T14:03:18.949Z,38.33
2022-08-04T14:05:18.248Z,38.02
2022-08-04T14:07:16.283Z,38.33
2022-08-04T14:09:11.689Z,38.36
2022-08-04T14:12:07.299Z,38.31
2022-08-04T14:13:14.106Z,37.71
2022-08-04T14:15:14.979Z,37.89
2022-08-04T14:17:20.034Z,38.43
2022-08-04T14:19:17.571Z,38.57
2022-08-04T14:21:18.768Z,38.84
2022-08-04T14:23:19.996Z,38.84
2022-08-04T14:25:20.794Z,38.41
2022-08-04T14:27:21.801Z,38.84
2022-08-04T14:29:26.028Z,39.14
2022-08-04T14:31:26.673Z,39.11
2022-08-04T14:34:00.731Z,38
2022-08-04T14:35:26.710Z,38.5
2022-08-04T14:37:27.771Z,38.92
2022-08-04T14:39:29.495Z,39.25
2022-08-04T14:41:30.774Z,38.35
2022-08-04T14:43:31.626Z,38.37
2022-08-04T14:45:32.810Z,38.42
2022-08-04T14:47:34.447Z,38.36
2022-08-04T14:49:36.051Z,38.37
2022-08-04T14:51:37.129Z,38.41
2022-08-04T14:53:38.182Z,39.13
2022-08-04T14:55:39.467Z,38.62
2022-08-04T14:58:33.285Z,38.08
2022-08-04T14:59:44.121Z,37.74
2022-08-04T15:01:43.333Z,38.2
2022-08-04T15:03:48.159Z,38.26
2022-08-04T15:05:54.709Z,38.51
2022-08-04T15:07:46.956Z,38.09
2022-08-04T15:09:47.793Z,38.67
2022-08-04T15:11:48.643Z,38.4
2022-08-04T15:13:49.410Z,38.62
2022-08-04T15:16:04.058Z,38.77
2022-08-04T15:17:51.557Z,39.11
2022-08-04T15:19:55.378Z,39.15
2022-08-04T15:21:53.992Z,39.44
2022-08-04T15:23:55.313Z,39.31
2022-08-04T15:25:56.445Z,38.8
2022-08-04T15:27:57.475Z,38.73
2022-08-04T15:30:01.503Z,38.38
2022-08-04T15:32:05.206Z,38.85
2022-08-04T15:34:01.788Z,38.86
2022-08-04T15:36:02.719Z,37.82
2022-08-04T15:38:03.664Z,37.9
2022-08-04T15:40:04.810Z,37.52
2022-08-04T15:42:10.555Z,38.04
2022-08-04T15:44:07.968Z,37.98
2022-08-04T15:46:42.165Z,38.29
2022-08-04T15:48:10.805Z,37.52
2022-08-04T15:50:12.214Z,38.15
2022-08-04T15:52:13.339Z,38.33
2022-08-04T15:54:16.290Z,38.31
2022-08-04T15:56:15.318Z,37.89
2022-08-04T15:58:17.045Z,37.74
2022-08-04T16:00:18.090Z,37.73
2022-08-04T16:02:19.371Z,37.99
2022-08-04T16:04:20.745Z,38.21
2022-08-04T16:06:21.484Z,38.16
2022-08-04T16:08:22.507Z,38.59
2022-08-04T16:10:24.098Z,38.84
2022-08-04T16:12:44.606Z,38.15
2022-08-04T16:14:25.818Z,38.06
2022-08-04T16:16:27.152Z,38.37
2022-08-04T16:18:28.637Z,38.04
2022-08-04T16:20:29.412Z,38.19
2022-08-04T16:22:30.413Z,38.41
2022-08-04T16:24:31.120Z,38.62
2022-08-04T16:26:31.864Z,38.88
2022-08-04T16:28:32.982Z,38.43
2022-08-04T16:30:34.160Z,38.85
2022-08-04T16:32:35.063Z,38.64
2022-08-04T16:34:47.161Z,38.82
2022-08-04T16:36:37.038Z,38.5
2022-08-04T16:37:20.640Z,38.15
2022-08-04T16:39:22.295Z,38.4
2022-08-04T16:41:23.854Z,38.7
2022-08-04T16:43:25.327Z,38.79
2022-08-04T16:45:26.249Z,38.82
2022-08-04T16:47:27.219Z,38.84
2022-08-04T16:49:27.981Z,38.2
2022-08-04T16:51:29.025Z,37.92
2022-08-04T16:53:51.857Z,37.96
2022-08-04T16:55:32.285Z,38.34
2022-08-04T16:57:37.025Z,37.91
2022-08-04T16:59:35.184Z,37.61
2022-08-04T17:01:37.008Z,37.82
2022-08-04T17:03:38.346Z,37.78
2022-08-04T17:05:40.378Z,37.9
2022-08-04T17:07:41.610Z,37.78
2022-08-04T17:09:43.054Z,37.31
2022-08-04T17:11:43.878Z,37.04
2022-08-04T17:14:01.716Z,36.92
2022-08-04T17:15:46.181Z,36.96
2022-08-04T17:17:59.415Z,36.96
2022-08-04T17:19:48.130Z,36.72
2022-08-04T17:21:48.948Z,36.38
2022-08-04T17:24:12.446Z,35.94
2022-08-04T17:25:52.686Z,35.74
2022-08-04T17:28:05.900Z,35.6
2022-08-04T17:29:53.691Z,35.35
2022-08-04T17:31:54.720Z,35.26
2022-08-04T17:33:56.592Z,35.05
2022-08-04T17:35:57.482Z,34.93
2022-08-04T17:37:58.671Z,34.86
2022-08-04T17:39:59.971Z,34.82
2022-08-04T17:42:01.570Z,34.77
2022-08-04T17:44:06.555Z,34.61
2022-08-04T17:46:04.148Z,34.52
2022-08-04T17:48:05.612Z,34.53
2022-08-04T17:50:06.776Z,34.48
2022-08-04T17:52:10.313Z,34.47
2022-08-04T17:54:09.318Z,34.35
2022-08-04T17:56:11.031Z,34.33
2022-08-04T17:58:13.657Z,34.18
2022-08-04T18:00:13.819Z,34.05
2022-08-04T18:02:15.478Z,33.87
2022-08-04T18:04:16.798Z,33.81
2022-08-04T18:06:18.064Z,33.67
2022-08-04T18:08:35.757Z,33.45
2022-08-04T18:10:30.358Z,33.21
2022-08-04T18:12:21.569Z,33.06
2022-08-04T18:14:25.844Z,32.84
2022-08-04T18:16:24.876Z,32.63
2022-08-04T18:18:26.632Z,32.4
2022-08-04T18:20:27.349Z,32.35
2022-08-04T18:22:28.754Z,32.35
2022-08-04T18:24:34.874Z,32.41
2022-08-04T18:26:30.624Z,32.38
2022-08-04T18:28:33.133Z,32.3
2022-08-04T18:30:50.911Z,32.3
2022-08-04T18:32:34.349Z,32.18
2022-08-04T18:34:35.258Z,31.94
2022-08-04T18:36:37.860Z,31.93
2022-08-04T18:38:37.392Z,31.89
2022-08-04T18:40:52.320Z,31.72
2022-08-04T18:42:40.242Z,31.68
2022-08-04T18:44:51.961Z,31.5
2022-08-04T18:46:50.824Z,31.34
2022-08-04T18:48:45.143Z,31.13
2022-08-04T18:51:11.748Z,31.02
2022-08-04T18:52:46.168Z,30.87
2022-08-04T18:54:47.244Z,30.8
2022-08-04T18:57:05.309Z,30.57
2022-08-04T18:58:49.785Z,30.43
2022-08-04T19:00:51.201Z,30.51
2022-08-04T19:02:52.003Z,30.51
2022-08-04T19:04:53.545Z,30.35
2022-08-04T19:06:54.908Z,29.94
2022-08-04T19:08:55.751Z,29.77
2022-08-04T19:10:59.680Z,29.72
2022-08-04T19:12:59.402Z,29.61
2022-08-04T19:15:08.322Z,29.47
2022-08-04T19:17:01.807Z,29.44
2022-08-04T19:19:02.877Z,29.25
2022-08-04T19:21:05.298Z,29.07
2022-08-04T19:24:10.045Z,28.82
2022-08-04T19:25:06.972Z,28.65
2022-08-04T19:27:08.614Z,28.47
2022-08-04T19:29:09.845Z,28.36
2022-08-04T19:31:10.628Z,28.25
2022-08-04T19:33:12.214Z,28.09
2022-08-04T19:35:13.492Z,27.88
2022-08-04T19:37:20.102Z,27.79
2022-08-04T19:39:15.869Z,27.67
2022-08-04T19:41:16.808Z,27.56
2022-08-04T19:43:18.409Z,27.53
2022-08-04T19:45:19.271Z,27.44
2022-08-04T19:48:11.141Z,27.36
2022-08-04T19:50:03.407Z,27.34
2022-08-04T19:51:22.790Z,27.13
2022-08-04T19:53:36.842Z,26.87
2022-08-04T19:55:37.004Z,27.03
2022-08-04T19:57:35.503Z,27.15
2022-08-04T19:59:27.548Z,27.27
2022-08-04T20:01:31.611Z,27.18
2022-08-04T20:04:08.557Z,27.05
2022-08-04T20:05:34.281Z,26.87
2022-08-04T20:07:32.417Z,26.75
2022-08-04T20:09:34.301Z,26.58
2022-08-04T20:11:34.705Z,26.46
2022-08-04T20:13:37.515Z,26.25
2022-08-04T20:15:37.257Z,26.07
2022-08-04T20:18:06.796Z,25.85
2022-08-04T20:19:39.742Z,25.75
2022-08-04T20:21:54.604Z,25.6
2022-08-04T20:23:48.053Z,25.55
2022-08-04T20:25:43.955Z,25.49
2022-08-04T20:27:51.882Z,25.37
2022-08-04T20:29:46.191Z,25.34
2022-08-04T20:31:46.924Z,25.29
2022-08-04T20:33:49.416Z,25.48
2022-08-04T20:36:00.905Z,25.49
2022-08-04T20:37:54.915Z,25.46
2022-08-04T20:39:54.574Z,25.42
2022-08-04T20:41:53.925Z,25.44
2022-08-04T20:43:56.178Z,25.34
2022-08-04T20:45:59.209Z,25.41
2022-08-04T20:47:58.599Z,25.34
2022-08-04T20:50:00.766Z,25.3
2022-08-04T20:52:03.576Z,25.2
2022-08-04T20:54:02.497Z,25.1
2022-08-04T20:56:03.843Z,25.06
2022-08-04T20:58:05.663Z,24.92
2022-08-04T21:00:07.299Z,24.97
2022-08-04T21:02:08.469Z,24.92
2022-08-04T21:04:10.242Z,24.83
2022-08-04T21:06:11.800Z,24.85
2022-08-04T21:08:12.650Z,24.93
2022-08-04T21:10:14.176Z,24.79
2022-08-04T21:12:17.004Z,24.57
2022-08-04T21:14:16.446Z,24.47
2022-08-04T21:16:26.093Z,24.37
2022-08-04T21:18:18.944Z,24.34
2022-08-04T21:20:21.730Z,24.3
2022-08-04T21:22:22.543Z,24.31
2022-08-04T21:24:25.977Z,24.31
2022-08-04T21:26:23.860Z,24.31
2022-08-04T21:28:25.608Z,24.17
2022-08-04T21:30:26.535Z,24.01
2022-08-04T21:32:28.282Z,24.02
2022-08-04T21:34:31.475Z,24.01
2022-08-04T21:36:30.504Z,23.87
2022-08-04T21:38:31.379Z,23.8
2022-08-04T21:40:36.607Z,23.66
2022-08-04T21:42:33.708Z,23.48
2022-08-04T21:44:35.468Z,23.4
2022-08-04T21:46:42.548Z,23.33
2022-08-04T21:48:38.079Z,23.34
2022-08-04T21:50:39.062Z,23.31
2022-08-04T21:52:40.645Z,23.22
2022-08-04T21:54:42.377Z,23.22
2022-08-04T21:56:49.181Z,23.17
2022-08-04T21:58:45.009Z,23.08
2022-08-04T22:02:53.072Z,22.94
2022-08-04T22:04:48.880Z,22.83
2022-08-04T22:06:51.768Z,22.73
2022-08-04T22:08:51.217Z,22.6
2022-08-04T22:10:52.271Z,22.45
2022-08-04T22:12:53.928Z,22.43
2022-08-04T22:14:57.468Z,22.48
2022-08-04T22:16:56.663Z,22.39
2022-08-04T22:18:57.574Z,22.48
2022-08-04T22:20:59.161Z,22.57
2022-08-04T22:23:06.255Z,22.58
2022-08-04T22:25:01.596Z,22.59
2022-08-04T22:27:02.884Z,22.73
2022-08-04T22:29:06.206Z,22.73
2022-08-04T22:31:23.002Z,22.86
2022-08-04T22:33:07.973Z,22.9
2022-08-04T22:35:30.781Z,22.86
2022-08-04T22:39:11.648Z,22.62
2022-08-04T22:41:12.770Z,22.44
2022-08-04T22:43:31.588Z,22.36
2022-08-04T22:45:15.415Z,22.46
2022-08-04T22:47:20.329Z,22.46
2022-08-04T22:49:17.499Z,22.49
2022-08-04T22:51:18.800Z,22.46
2022-08-04T22:53:20.507Z,22.37
2022-08-04T22:55:21.797Z,22.28
2022-08-04T22:57:25.140Z,22.14
2022-08-04T22:59:24.766Z,22.07
2022-08-04T23:01:25.702Z,22.12
2022-08-04T23:03:36.736Z,22.09
2022-08-04T23:05:28.954Z,22
2022-08-04T23:07:38.115Z,21.9
2022-08-04T23:09:49.727Z,21.87
2022-08-04T23:11:35.039Z,21.9
2022-08-04T23:13:33.403Z,21.87
2022-08-04T23:15:34.878Z,21.82
2022-08-04T23:17:43.730Z,21.81
2022-08-04T23:19:37.416Z,21.71
2022-08-04T23:21:40.806Z,21.66
2022-08-04T23:22:37.373Z,21.74
2022-08-04T23:24:24.740Z,21.64
2022-08-04T23:26:27.542Z,21.57
2022-08-04T23:28:27.811Z,21.56
2022-08-04T23:30:29.630Z,21.54
2022-08-04T23:32:30.510Z,21.49
2022-08-04T23:34:31.642Z,21.46
2022-08-04T23:36:33.479Z,21.54
2022-08-04T23:38:35.014Z,21.55
2022-08-04T23:40:50.169Z,21.44
2022-08-04T23:42:38.477Z,21.42
2022-08-04T23:44:40.229Z,21.41
2022-08-04T23:46:41.962Z,21.41
2022-08-04T23:48:43.396Z,21.42
2022-08-04T23:50:44.612Z,21.43
2022-08-04T23:52:46.276Z,21.37
2022-08-04T23:54:47.413Z,21.3
2022-08-04T23:56:48.882Z,21.24
2022-08-04T23:58:50.166Z,21.12
